Time;durP1;ratioP1;P1;durP2;ratioP2;P2;SDS_P1;SDS_P2;PMS_P1;PMS_P2;Temp;Humidity;BMP_temperature;BMP_pressure;BME280_temperature;BME280_humidity;BME280_pressure;Samples;Min_cycle;Max_cycle;Signal;HPM_P1;HPM_P2
2022/12/30 00:00:38;;;;;;;6.60;1.65;;;;;;;7.92;100.00;100176.72;20778840;28;20046;-74
2022/12/30 00:10:39;;;;;;;7.78;1.45;;;;;;;7.78;100.00;100186.38;20790576;28;20053;-74
2022/12/30 01:02:00;;;;;;;7.63;1.70;;;;;;;7.05;100.00;100212.91;20707405;28;20418;-70
2022/12/30 01:12:08;;;;;;;5.25;1.30;;;;;;;6.97;100.00;100225.06;20706790;28;20054;-69
2022/12/30 01:22:09;;;;;;;12.73;2.80;;;;;;;6.85;100.00;100233.75;20708915;28;20056;-69
2022/12/30 01:32:10;;;;;;;6.07;1.88;;;;;;;6.80;100.00;100238.97;20705299;28;20050;-69
2022/12/30 01:42:11;;;;;;;13.63;2.25;;;;;;;6.69;100.00;100251.16;20704922;28;20049;-69
2022/12/30 01:52:13;;;;;;;8.90;2.05;;;;;;;6.60;100.00;100245.97;20704068;28;20053;-70
2022/12/30 02:02:14;;;;;;;9.48;2.17;;;;;;;6.56;100.00;100270.25;20702843;28;20053;-69
2022/12/30 02:12:16;;;;;;;14.63;2.42;;;;;;;6.42;100.00;100263.38;20703076;28;20054;-70
2022/12/30 02:22:17;;;;;;;13.10;2.42;;;;;;;6.22;100.00;100275.50;20704571;28;20134;-70
2022/12/30 02:32:18;;;;;;;10.27;2.05;;;;;;;6.00;100.00;100303.22;20700816;28;20108;-70
2022/12/30 02:52:39;;;;;;;11.70;2.05;;;;;;;5.98;100.00;100320.53;20699051;28;20053;-70
2022/12/30 03:13:01;;;;;;;6.88;2.00;;;;;;;6.18;100.00;100323.19;20698145;28;20059;-70
2022/12/30 03:33:22;;;;;;;7.10;1.73;;;;;;;5.97;100.00;100284.16;20696540;28;20115;-70
2022/12/30 03:43:24;;;;;;;7.20;1.85;;;;;;;5.86;100.00;100295.38;20696045;28;20058;-70
2022/12/30 03:53:25;;;;;;;9.75;1.70;;;;;;;5.89;100.00;100287.59;20695827;28;20069;-70
2022/12/30 04:03:26;;;;;;;6.35;2.47;;;;;;;5.89;100.00;100297.97;20695117;28;20107;-70
2022/12/30 04:13:28;;;;;;;4.90;1.75;;;;;;;5.75;100.00;100298.78;20694888;28;20046;-70
2022/12/30 04:23:29;;;;;;;8.95;2.28;;;;;;;5.75;100.00;100294.50;20697190;28;20484;-70
2022/12/30 04:33:30;;;;;;;8.40;2.40;;;;;;;5.65;100.00;100279.72;20693082;28;20045;-70
2022/12/30 04:43:31;;;;;;;6.13;2.33;;;;;;;5.59;100.00;100277.13;20693507;28;20426;-69
2022/12/30 04:53:33;;;;;;;7.28;2.28;;;;;;;5.53;100.00;100283.16;20706697;28;20054;-70
2022/12/30 05:03:34;;;;;;;5.82;2.13;;;;;;;5.48;100.00;100297.88;20707361;28;20132;-69
2022/12/30 05:13:35;;;;;;;5.78;2.20;;;;;;;5.28;100.00;100300.41;20706713;28;20078;-70
2022/12/30 05:34:04;;;;;;;7.10;2.17;;;;;;;4.95;100.00;100297.63;20704868;28;20050;-70
2022/12/30 05:44:09;;;;;;;6.20;2.20;;;;;;;4.79;100.00;100307.94;20704272;28;20058;-70
2022/12/30 05:54:11;;;;;;;8.57;3.03;;;;;;;4.60;100.00;100306.09;20703627;28;20113;-70
2022/12/30 06:04:12;;;;;;;6.82;2.65;;;;;;;4.40;100.00;100325.78;20701410;28;20049;-69
2022/12/30 06:14:15;;;;;;;11.05;4.28;;;;;;;4.36;100.00;100323.19;20702653;28;20062;-70
2022/12/30 06:24:16;;;;;;;15.55;6.68;;;;;;;4.37;100.00;100319.72;20703256;28;20050;-70
2022/12/30 06:34:18;;;;;;;14.40;6.30;;;;;;;4.24;100.00;100323.06;20699608;28;20121;-69
2022/12/30 06:44:22;;;;;;;15.30;6.80;;;;;;;4.13;100.00;100327.28;20699925;28;20112;-71
2022/12/30 06:54:33;;;;;;;26.60;12.82;;;;;;;4.13;100.00;100322.13;20856253;28;20136;-73
2022/12/30 07:04:34;;;;;;;31.40;13.40;;;;;;;4.05;100.00;100323.75;20861173;28;20048;-75
2022/12/30 07:14:35;;;;;;;23.45;11.55;;;;;;;3.82;100.00;100313.16;20862036;28;20057;-73
2022/12/30 07:24:37;;;;;;;23.42;11.10;;;;;;;3.75;100.00;100306.19;20861420;28;20485;-73
2022/12/30 07:34:38;;;;;;;25.50;10.73;;;;;;;3.62;100.00;100304.31;20860916;28;20045;-73
2022/12/30 07:44:44;;;;;;;21.45;9.82;;;;;;;3.66;100.00;100306.97;20860281;28;20489;-73
2022/12/30 07:54:45;;;;;;;27.88;11.75;;;;;;;3.66;100.00;100300.91;20859272;28;20071;-73
2022/12/30 08:04:46;;;;;;;27.77;11.82;;;;;;;3.69;100.00;100281.13;20858070;28;20563;-73
2022/12/30 08:14:53;;;;;;;28.20;13.32;;;;;;;3.86;100.00;100276.94;20859667;28;20535;-72
2022/12/30 08:24:54;;;;;;;24.98;12.82;;;;;;;4.09;100.00;100260.75;20868161;28;20057;-71
2022/12/30 08:34:55;;;;;;;37.35;19.35;;;;;;;4.41;100.00;100241.97;20874803;28;20075;-71
2022/12/30 08:44:57;;;;;;;37.80;19.95;;;;;;;4.52;100.00;100224.78;20874053;28;20048;-69
2022/12/30 08:54:58;;;;;;;27.45;14.45;;;;;;;4.76;100.00;100217.13;20873566;28;20596;-71
2022/12/30 09:04:59;;;;;;;23.58;12.63;;;;;;;5.01;100.00;100222.41;20872248;28;20102;-71
2022/12/30 09:15:00;;;;;;;24.63;15.52;;;;;;;5.25;100.00;100193.09;20871089;28;20099;-71
2022/12/30 09:25:02;;;;;;;29.85;18.73;;;;;;;5.47;100.00;100189.69;20870388;28;20049;-71
2022/12/30 09:35:03;;;;;;;14.70;6.75;;;;;;;5.68;100.00;100178.44;20869486;28;20045;-71
2022/12/30 09:45:04;;;;;;;11.73;6.55;;;;;;;5.94;100.00;100159.41;20870043;28;20511;-71
2022/12/30 09:55:06;;;;;;;14.23;7.85;;;;;;;6.19;100.00;100155.06;20869224;28;20048;-71
2022/12/30 10:05:07;;;;;;;14.52;7.80;;;;;;;6.37;100.00;100129.00;20867287;28;20049;-71
2022/12/30 10:15:08;;;;;;;10.07;5.30;;;;;;;6.55;100.00;100096.88;20866812;28;20493;-71
2022/12/30 10:25:10;;;;;;;9.77;5.55;;;;;;;6.79;100.00;100090.69;20865483;28;20069;-71
2022/12/30 10:35:11;;;;;;;11.20;4.63;;;;;;;7.05;100.00;100085.34;20865147;28;20053;-71
2022/12/30 10:45:12;;;;;;;8.57;4.32;;;;;;;7.25;100.00;100085.19;20861886;28;20049;-71
2022/12/30 10:55:13;;;;;;;9.50;5.10;;;;;;;7.42;100.00;100083.31;20864246;28;20049;-71
2022/12/30 11:05:15;;;;;;;11.40;5.03;;;;;;;7.72;100.00;100045.72;20863103;28;20047;-71
2022/12/30 11:15:16;;;;;;;9.18;4.40;;;;;;;7.91;100.00;100020.34;20862464;28;20049;-70
2022/12/30 11:25:17;;;;;;;7.35;3.15;;;;;;;8.05;100.00;100012.31;20862064;28;20052;-70
2022/12/30 11:35:18;;;;;;;7.43;3.30;;;;;;;7.97;100.00;99992.44;20859494;28;20136;-69
2022/12/30 11:45:20;;;;;;;8.63;3.17;;;;;;;8.04;100.00;99974.09;20859394;28;20099;-69
2022/12/30 11:55:22;;;;;;;6.32;2.72;;;;;;;8.03;100.00;99957.59;20858486;28;20052;-70
2022/12/30 12:05:24;;;;;;;7.18;3.13;;;;;;;8.04;100.00;99937.59;20858298;28;20052;-69
2022/12/30 12:15:25;;;;;;;10.63;4.38;;;;;;;8.17;100.00;99923.53;20859555;28;20041;-69
2022/12/30 12:25:26;;;;;;;8.75;3.63;;;;;;;8.27;100.00;99908.63;20859751;28;20048;-70
2022/12/30 12:35:28;;;;;;;10.75;4.72;;;;;;;8.28;100.00;99895.53;20857289;28;20052;-70
2022/12/30 12:45:29;;;;;;;11.15;5.88;;;;;;;8.44;100.00;99873.63;20874815;23;20132;-73
2022/12/30 12:55:30;;;;;;;9.27;4.55;;;;;;;8.59;100.00;99848.16;20759317;28;20071;-74
2022/12/30 13:05:31;;;;;;;5.75;3.00;;;;;;;8.66;100.00;99815.84;20776002;28;20053;-73
2022/12/30 13:15:33;;;;;;;7.45;3.03;;;;;;;8.66;100.00;99801.03;20787216;28;20486;-72
2022/12/30 13:25:34;;;;;;;8.50;3.50;;;;;;;8.65;100.00;99777.59;20787386;28;20054;-74
2022/12/30 13:35:35;;;;;;;8.55;3.22;;;;;;;8.59;100.00;99747.25;20786551;28;20689;-72
2022/12/30 13:45:36;;;;;;;8.77;3.67;;;;;;;8.51;100.00;99737.84;20787024;28;20062;-71
2022/12/30 13:55:38;;;;;;;10.50;3.42;;;;;;;8.40;100.00;99741.50;20786928;28;20077;-72
2022/12/30 14:05:39;;;;;;;8.95;3.35;;;;;;;8.27;100.00;99736.50;20784415;28;20049;-71
2022/12/30 14:15:41;;;;;;;8.07;3.67;;;;;;;8.19;100.00;99719.25;20784358;28;20099;-73
2022/12/30 14:25:45;;;;;;;15.43;5.05;;;;;;;8.14;100.00;99714.97;20782403;28;20046;-71
2022/12/30 14:35:46;;;;;;;27.85;14.57;;;;;;;8.07;100.00;99702.94;20782041;28;20109;-70
2022/12/30 14:45:47;;;;;;;13.35;6.80;;;;;;;8.01;100.00;99698.69;20781824;28;20072;-72
2022/12/30 14:55:49;;;;;;;13.73;7.68;;;;;;;7.92;100.00;99678.84;20779682;28;20045;-71
2022/12/30 15:05:50;;;;;;;7.65;4.45;;;;;;;7.89;100.00;99681.47;20779318;28;20049;-71
2022/12/30 15:15:52;;;;;;;12.15;4.95;;;;;;;7.88;100.00;99674.56;20779257;28;20046;-71
2022/12/30 15:25:53;;;;;;;20.42;10.55;;;;;;;7.83;100.00;99655.53;20779200;28;20058;-73
2022/12/30 15:35:54;;;;;;;14.52;8.40;;;;;;;7.82;100.00;99687.69;20777439;28;20061;-72
2022/12/30 15:45:55;;;;;;;16.35;10.18;;;;;;;7.78;100.00;99678.19;20777171;28;20046;-71
2022/12/30 15:55:57;;;;;;;11.93;5.97;;;;;;;7.75;100.00;99649.56;20776677;28;20439;-72
2022/12/30 16:05:58;;;;;;;13.80;7.85;;;;;;;7.70;100.00;99636.63;20775836;28;20084;-73
2022/12/30 16:15:59;;;;;;;16.95;8.98;;;;;;;7.71;100.00;99637.47;20777638;28;20046;-72
2022/12/30 16:26:01;;;;;;;23.17;13.45;;;;;;;7.74;100.00;99629.63;20778606;28;20064;-71
2022/12/30 16:36:02;;;;;;;13.60;7.47;;;;;;;7.75;100.00;99633.94;20776109;28;20046;-72
2022/12/30 16:46:04;;;;;;;12.63;6.88;;;;;;;7.84;100.00;99617.28;20783236;28;20463;-73
2022/12/30 16:56:05;;;;;;;13.32;7.38;;;;;;;8.00;100.00;99604.84;20789835;28;20048;-71
2022/12/30 17:06:06;;;;;;;9.70;4.88;;;;;;;8.48;100.00;99595.28;20792961;28;20521;-72
2022/12/30 17:16:13;;;;;;;6.18;2.85;;;;;;;8.88;100.00;99610.97;20783229;28;20079;-72
2022/12/30 17:26:15;;;;;;;6.95;2.30;;;;;;;9.36;100.00;99629.03;20782590;28;20056;-73
2022/12/30 17:36:16;;;;;;;4.78;2.33;;;;;;;9.49;100.00;99640.94;20783190;28;20107;-74
2022/12/30 17:46:17;;;;;;;6.78;3.08;;;;;;;9.74;100.00;99661.25;20778412;28;20103;-72
2022/12/30 17:56:21;;;;;;;8.68;3.05;;;;;;;9.80;100.00;99661.09;20776747;28;20057;-72
2022/12/30 18:06:23;;;;;;;7.27;2.37;;;;;;;9.90;100.00;99674.81;20776206;28;20561;-73
2022/12/30 18:16:24;;;;;;;6.43;2.55;;;;;;;9.85;100.00;99685.38;20778983;28;20061;-73
2022/12/30 18:26:26;;;;;;;5.07;3.22;;;;;;;9.96;100.00;99706.03;20774714;28;20054;-75
2022/12/30 18:36:28;;;;;;;7.43;3.90;;;;;;;10.04;100.00;99722.41;20773418;28;20045;-72
2022/12/30 18:46:29;;;;;;;4.95;2.30;;;;;;;10.23;100.00;99728.03;20773193;28;20604;-72
2022/12/30 18:56:30;;;;;;;7.55;3.03;;;;;;;10.27;100.00;99738.41;20775273;28;20119;-73
2022/12/30 19:06:32;;;;;;;4.85;2.50;;;;;;;10.34;100.00;99756.56;20771903;28;20046;-73
2022/12/30 19:16:35;;;;;;;4.22;2.05;;;;;;;10.36;100.00;99776.59;20774956;28;20489;-73
2022/12/30 19:26:36;;;;;;;7.00;3.03;;;;;;;10.48;100.00;99780.63;20773236;28;20053;-74
2022/12/30 19:36:37;;;;;;;5.75;2.70;;;;;;;10.49;100.00;99788.47;20769990;28;20049;-73
2022/12/30 19:46:39;;;;;;;6.72;3.10;;;;;;;10.68;100.00;99798.44;20770302;28;20116;-73
2022/12/30 19:56:40;;;;;;;5.05;2.53;;;;;;;10.72;100.00;99800.94;20770917;28;20054;-72
2022/12/30 20:06:42;;;;;;;7.60;3.33;;;;;;;10.82;100.00;99814.66;20768656;28;20088;-72
2022/12/30 20:16:43;;;;;;;5.07;2.55;;;;;;;10.88;100.00;99840.72;20774387;28;20053;-72
2022/12/30 20:26:44;;;;;;;5.05;2.20;;;;;;;11.01;100.00;99839.47;20783451;28;20149;-72
2022/12/30 20:36:46;;;;;;;5.18;1.88;;;;;;;11.16;100.00;99842.59;20783788;28;20054;-72
2022/12/30 20:46:47;;;;;;;3.45;1.85;;;;;;;11.17;100.00;99873.16;20782249;28;20050;-73
2022/12/30 20:56:48;;;;;;;3.97;1.60;;;;;;;11.26;100.00;99878.16;20781785;28;20483;-73
2022/12/30 21:06:49;;;;;;;4.32;2.03;;;;;;;11.37;100.00;99868.22;20782748;28;20524;-72
2022/12/30 21:16:51;;;;;;;5.90;2.17;;;;;;;11.39;100.00;99865.56;20781067;28;20104;-72
2022/12/30 21:26:52;;;;;;;6.03;3.30;;;;;;;11.53;100.00;99869.50;20782575;28;20053;-73
2022/12/30 21:36:54;;;;;;;3.80;1.60;;;;;;;11.56;100.00;99874.69;20778023;28;20516;-72
2022/12/30 22:07:41;;;;;;;5.53;2.38;;;;;;;11.66;100.00;99905.88;20776454;28;20491;-72
2022/12/30 22:17:42;;;;;;;4.05;1.95;;;;;;;11.77;100.00;99909.06;20780302;28;20103;-72
2022/12/30 22:27:44;;;;;;;2.33;0.98;;;;;;;11.83;100.00;99914.16;20775055;28;20065;-72
2022/12/30 22:37:45;;;;;;;3.05;1.50;;;;;;;12.00;100.00;99914.53;20775176;28;20060;-73
2022/12/30 22:47:48;;;;;;;2.35;0.80;;;;;;;12.16;100.00;99916.69;20774254;28;20057;-73
2022/12/30 22:57:49;;;;;;;1.90;0.80;;;;;;;12.22;100.00;99919.16;20771137;28;20049;-72
2022/12/30 23:07:50;;;;;;;3.00;0.70;;;;;;;12.37;100.00;99929.19;20777140;28;20127;-72
2022/12/30 23:17:52;;;;;;;2.45;0.80;;;;;;;12.19;100.00;99948.13;20782050;28;20107;-72
2022/12/30 23:27:53;;;;;;;2.67;1.50;;;;;;;12.01;100.00;99945.09;20778530;28;20552;-73
2022/12/30 23:37:54;;;;;;;2.92;1.10;;;;;;;11.98;100.00;99968.84;20777225;28;20060;-73
2022/12/30 23:47:55;;;;;;;3.45;1.20;;;;;;;11.97;100.00;99977.56;20777648;28;20140;-73
2022/12/30 23:57:57;;;;;;;3.65;0.90;;;;;;;11.98;100.00;99997.69;20776010;28;20053;-73
